sensor_id;sensor_type;location;lat;lon;timestamp;P1;durP1;ratioP1;P2;durP2;ratioP2
64065;SDS011;50318;54.760;9.408;2022-12-07T00:03:39;25.70;;;18.55;;
64065;SDS011;50318;54.760;9.408;2022-12-07T00:06:07;28.05;;;17.50;;
64065;SDS011;50318;54.760;9.408;2022-12-07T00:08:35;26.50;;;17.05;;
64065;SDS011;50318;54.760;9.408;2022-12-07T00:11:02;25.40;;;16.50;;
64065;SDS011;50318;54.760;9.408;2022-12-07T00:13:29;25.15;;;16.27;;
64065;SDS011;50318;54.760;9.408;2022-12-07T00:15:55;25.27;;;18.58;;
64065;SDS011;50318;54.760;9.408;2022-12-07T00:18:21;28.48;;;17.00;;
64065;SDS011;50318;54.760;9.408;2022-12-07T00:20:46;35.00;;;19.60;;
64065;SDS011;50318;54.760;9.408;2022-12-07T00:23:12;27.95;;;18.33;;
64065;SDS011;50318;54.760;9.408;2022-12-07T00:25:38;24.17;;;18.15;;
64065;SDS011;50318;54.760;9.408;2022-12-07T00:28:03;24.58;;;18.83;;
64065;SDS011;50318;54.760;9.408;2022-12-07T00:30:29;25.65;;;20.02;;
64065;SDS011;50318;54.760;9.408;2022-12-07T00:32:55;25.33;;;18.85;;
64065;SDS011;50318;54.760;9.408;2022-12-07T00:35:21;23.40;;;17.75;;
64065;SDS011;50318;54.760;9.408;2022-12-07T00:37:46;22.88;;;17.42;;
64065;SDS011;50318;54.760;9.408;2022-12-07T00:40:12;21.42;;;16.92;;
64065;SDS011;50318;54.760;9.408;2022-12-07T00:42:38;25.90;;;16.55;;
64065;SDS011;50318;54.760;9.408;2022-12-07T00:45:04;30.13;;;20.55;;
64065;SDS011;50318;54.760;9.408;2022-12-07T00:47:30;25.13;;;16.83;;
64065;SDS011;50318;54.760;9.408;2022-12-07T00:49:55;27.38;;;20.20;;
64065;SDS011;50318;54.760;9.408;2022-12-07T00:52:21;25.92;;;19.75;;
64065;SDS011;50318;54.760;9.408;2022-12-07T00:54:47;25.65;;;20.50;;
64065;SDS011;50318;54.760;9.408;2022-12-07T00:57:12;23.75;;;18.70;;
64065;SDS011;50318;54.760;9.408;2022-12-07T00:59:38;21.58;;;18.65;;
64065;SDS011;50318;54.760;9.408;2022-12-07T01:02:04;22.85;;;18.20;;
64065;SDS011;50318;54.760;9.408;2022-12-07T01:04:30;22.42;;;16.67;;
64065;SDS011;50318;54.760;9.408;2022-12-07T01:06:58;19.77;;;16.15;;
64065;SDS011;50318;54.760;9.408;2022-12-07T01:09:24;22.88;;;16.58;;
64065;SDS011;50318;54.760;9.408;2022-12-07T01:11:49;21.50;;;16.45;;
64065;SDS011;50318;54.760;9.408;2022-12-07T01:14:15;21.33;;;17.00;;
64065;SDS011;50318;54.760;9.408;2022-12-07T01:16:41;20.60;;;16.30;;
64065;SDS011;50318;54.760;9.408;2022-12-07T01:19:07;21.05;;;15.80;;
64065;SDS011;50318;54.760;9.408;2022-12-07T01:21:33;19.95;;;15.88;;
64065;SDS011;50318;54.760;9.408;2022-12-07T01:24:01;19.42;;;15.48;;
64065;SDS011;50318;54.760;9.408;2022-12-07T01:26:27;22.38;;;16.73;;
64065;SDS011;50318;54.760;9.408;2022-12-07T01:28:53;23.73;;;16.45;;
64065;SDS011;50318;54.760;9.408;2022-12-07T01:31:21;20.60;;;15.75;;
64065;SDS011;50318;54.760;9.408;2022-12-07T01:33:50;20.45;;;15.93;;
64065;SDS011;50318;54.760;9.408;2022-12-07T01:36:19;22.88;;;17.20;;
64065;SDS011;50318;54.760;9.408;2022-12-07T01:38:49;21.42;;;17.00;;
64065;SDS011;50318;54.760;9.408;2022-12-07T01:41:17;22.00;;;16.63;;
64065;SDS011;50318;54.760;9.408;2022-12-07T01:46:37;26.38;;;15.70;;
64065;SDS011;50318;54.760;9.408;2022-12-07T01:49:08;23.67;;;14.55;;
64065;SDS011;50318;54.760;9.408;2022-12-07T01:51:39;26.02;;;16.10;;
64065;SDS011;50318;54.760;9.408;2022-12-07T01:54:07;21.20;;;15.18;;
64065;SDS011;50318;54.760;9.408;2022-12-07T01:56:34;22.13;;;16.90;;
64065;SDS011;50318;54.760;9.408;2022-12-07T01:59:02;23.60;;;17.00;;
64065;SDS011;50318;54.760;9.408;2022-12-07T02:01:28;24.50;;;18.13;;
64065;SDS011;50318;54.760;9.408;2022-12-07T02:03:54;23.85;;;17.80;;
64065;SDS011;50318;54.760;9.408;2022-12-07T02:06:21;25.35;;;17.80;;
64065;SDS011;50318;54.760;9.408;2022-12-07T02:08:49;26.27;;;16.98;;
64065;SDS011;50318;54.760;9.408;2022-12-07T02:11:15;24.45;;;16.00;;
64065;SDS011;50318;54.760;9.408;2022-12-07T02:13:42;26.88;;;18.88;;
64065;SDS011;50318;54.760;9.408;2022-12-07T02:22:01;25.02;;;18.02;;
64065;SDS011;50318;54.760;9.408;2022-12-07T02:27:40;27.60;;;18.48;;
64065;SDS011;50318;54.760;9.408;2022-12-07T02:30:21;30.55;;;18.88;;
64065;SDS011;50318;54.760;9.408;2022-12-07T02:35:35;28.30;;;21.15;;
64065;SDS011;50318;54.760;9.408;2022-12-07T02:41:16;28.20;;;18.23;;
64065;SDS011;50318;54.760;9.408;2022-12-07T02:43:50;26.95;;;18.08;;
64065;SDS011;50318;54.760;9.408;2022-12-07T02:46:26;26.98;;;18.50;;
64065;SDS011;50318;54.760;9.408;2022-12-07T02:48:58;25.30;;;16.85;;
64065;SDS011;50318;54.760;9.408;2022-12-07T02:51:25;26.13;;;16.63;;
64065;SDS011;50318;54.760;9.408;2022-12-07T02:53:51;26.73;;;19.20;;
64065;SDS011;50318;54.760;9.408;2022-12-07T03:10:54;25.70;;;17.13;;
64065;SDS011;50318;54.760;9.408;2022-12-07T03:13:09;28.20;;;18.00;;
64065;SDS011;50318;54.760;9.408;2022-12-07T03:19:00;27.20;;;18.05;;
64065;SDS011;50318;54.760;9.408;2022-12-07T03:21:31;29.95;;;17.90;;
64065;SDS011;50318;54.760;9.408;2022-12-07T03:24:03;30.95;;;17.45;;
64065;SDS011;50318;54.760;9.408;2022-12-07T03:26:36;28.60;;;19.63;;
64065;SDS011;50318;54.760;9.408;2022-12-07T03:29:12;26.52;;;18.52;;
64065;SDS011;50318;54.760;9.408;2022-12-07T03:32:00;27.80;;;17.83;;
64065;SDS011;50318;54.760;9.408;2022-12-07T03:40:08;26.02;;;16.63;;
64065;SDS011;50318;54.760;9.408;2022-12-07T03:42:48;26.25;;;16.30;;
64065;SDS011;50318;54.760;9.408;2022-12-07T03:45:14;25.98;;;16.67;;
64065;SDS011;50318;54.760;9.408;2022-12-07T03:47:49;27.20;;;17.45;;
64065;SDS011;50318;54.760;9.408;2022-12-07T03:50:43;27.00;;;17.33;;
64065;SDS011;50318;54.760;9.408;2022-12-07T03:53:21;24.83;;;17.75;;
64065;SDS011;50318;54.760;9.408;2022-12-07T03:55:51;26.80;;;16.48;;
64065;SDS011;50318;54.760;9.408;2022-12-07T03:58:20;23.98;;;16.77;;
64065;SDS011;50318;54.760;9.408;2022-12-07T04:00:48;24.60;;;17.67;;
64065;SDS011;50318;54.760;9.408;2022-12-07T04:03:15;24.13;;;17.35;;
64065;SDS011;50318;54.760;9.408;2022-12-07T04:05:40;22.83;;;17.00;;
64065;SDS011;50318;54.760;9.408;2022-12-07T04:08:07;22.75;;;16.77;;
64065;SDS011;50318;54.760;9.408;2022-12-07T04:10:33;22.58;;;16.92;;
64065;SDS011;50318;54.760;9.408;2022-12-07T04:12:59;23.95;;;15.65;;
64065;SDS011;50318;54.760;9.408;2022-12-07T04:15:25;24.85;;;15.38;;
64065;SDS011;50318;54.760;9.408;2022-12-07T04:17:51;23.17;;;15.98;;
64065;SDS011;50318;54.760;9.408;2022-12-07T04:20:16;24.02;;;17.90;;
64065;SDS011;50318;54.760;9.408;2022-12-07T04:22:42;25.15;;;15.98;;
64065;SDS011;50318;54.760;9.408;2022-12-07T04:25:08;23.52;;;16.70;;
64065;SDS011;50318;54.760;9.408;2022-12-07T04:27:34;21.33;;;15.98;;
64065;SDS011;50318;54.760;9.408;2022-12-07T04:30:00;23.08;;;16.95;;
64065;SDS011;50318;54.760;9.408;2022-12-07T04:32:25;23.75;;;16.40;;
64065;SDS011;50318;54.760;9.408;2022-12-07T04:34:51;20.73;;;15.57;;
64065;SDS011;50318;54.760;9.408;2022-12-07T04:37:17;20.38;;;15.38;;
64065;SDS011;50318;54.760;9.408;2022-12-07T04:39:43;22.25;;;14.88;;
64065;SDS011;50318;54.760;9.408;2022-12-07T04:42:10;22.58;;;14.73;;
64065;SDS011;50318;54.760;9.408;2022-12-07T04:44:38;24.17;;;13.77;;
64065;SDS011;50318;54.760;9.408;2022-12-07T04:47:04;22.17;;;14.82;;
64065;SDS011;50318;54.760;9.408;2022-12-07T04:49:30;23.85;;;13.30;;
64065;SDS011;50318;54.760;9.408;2022-12-07T04:51:56;20.35;;;14.75;;
64065;SDS011;50318;54.760;9.408;2022-12-07T04:54:22;18.95;;;13.65;;
64065;SDS011;50318;54.760;9.408;2022-12-07T04:56:48;21.15;;;14.00;;
64065;SDS011;50318;54.760;9.408;2022-12-07T04:59:15;18.85;;;13.23;;
64065;SDS011;50318;54.760;9.408;2022-12-07T05:01:42;24.80;;;14.20;;
64065;SDS011;50318;54.760;9.408;2022-12-07T05:04:08;22.85;;;12.48;;
64065;SDS011;50318;54.760;9.408;2022-12-07T05:06:35;19.05;;;11.70;;
64065;SDS011;50318;54.760;9.408;2022-12-07T05:09:01;20.92;;;13.23;;
64065;SDS011;50318;54.760;9.408;2022-12-07T05:11:27;19.10;;;12.32;;
64065;SDS011;50318;54.760;9.408;2022-12-07T05:14:10;20.98;;;12.90;;
64065;SDS011;50318;54.760;9.408;2022-12-07T05:16:36;18.23;;;11.70;;
64065;SDS011;50318;54.760;9.408;2022-12-07T05:19:02;18.92;;;11.88;;
64065;SDS011;50318;54.760;9.408;2022-12-07T05:21:28;18.02;;;11.38;;
64065;SDS011;50318;54.760;9.408;2022-12-07T05:23:54;16.75;;;11.65;;
64065;SDS011;50318;54.760;9.408;2022-12-07T05:26:20;20.77;;;12.23;;
64065;SDS011;50318;54.760;9.408;2022-12-07T05:28:49;21.75;;;11.60;;
64065;SDS011;50318;54.760;9.408;2022-12-07T05:31:16;18.52;;;11.57;;
64065;SDS011;50318;54.760;9.408;2022-12-07T05:33:42;18.23;;;11.32;;
64065;SDS011;50318;54.760;9.408;2022-12-07T05:36:08;18.42;;;10.73;;
64065;SDS011;50318;54.760;9.408;2022-12-07T05:38:34;16.13;;;10.48;;
64065;SDS011;50318;54.760;9.408;2022-12-07T05:41:03;16.48;;;10.68;;
64065;SDS011;50318;54.760;9.408;2022-12-07T05:43:30;18.02;;;11.20;;
64065;SDS011;50318;54.760;9.408;2022-12-07T05:45:57;20.17;;;11.25;;
64065;SDS011;50318;54.760;9.408;2022-12-07T05:48:23;17.10;;;10.63;;
64065;SDS011;50318;54.760;9.408;2022-12-07T05:50:50;23.70;;;10.73;;
64065;SDS011;50318;54.760;9.408;2022-12-07T05:53:17;18.05;;;10.75;;
64065;SDS011;50318;54.760;9.408;2022-12-07T05:55:43;24.33;;;12.27;;
64065;SDS011;50318;54.760;9.408;2022-12-07T05:58:09;19.52;;;11.38;;
64065;SDS011;50318;54.760;9.408;2022-12-07T06:00:54;19.30;;;11.20;;
64065;SDS011;50318;54.760;9.408;2022-12-07T06:03:21;17.65;;;10.27;;
64065;SDS011;50318;54.760;9.408;2022-12-07T06:05:47;18.98;;;9.38;;
64065;SDS011;50318;54.760;9.408;2022-12-07T06:08:12;17.42;;;9.77;;
64065;SDS011;50318;54.760;9.408;2022-12-07T06:10:40;15.43;;;9.95;;
64065;SDS011;50318;54.760;9.408;2022-12-07T06:13:05;17.50;;;9.23;;
64065;SDS011;50318;54.760;9.408;2022-12-07T06:15:31;15.02;;;9.40;;
64065;SDS011;50318;54.760;9.408;2022-12-07T06:17:57;19.60;;;9.40;;
64065;SDS011;50318;54.760;9.408;2022-12-07T06:20:23;15.30;;;8.50;;
64065;SDS011;50318;54.760;9.408;2022-12-07T06:22:48;19.90;;;8.30;;
64065;SDS011;50318;54.760;9.408;2022-12-07T06:25:14;14.38;;;7.93;;
64065;SDS011;50318;54.760;9.408;2022-12-07T06:27:40;12.57;;;7.22;;
64065;SDS011;50318;54.760;9.408;2022-12-07T06:30:06;15.23;;;7.43;;
64065;SDS011;50318;54.760;9.408;2022-12-07T06:32:33;14.95;;;6.97;;
64065;SDS011;50318;54.760;9.408;2022-12-07T06:34:59;14.15;;;6.63;;
64065;SDS011;50318;54.760;9.408;2022-12-07T06:37:25;18.17;;;7.45;;
64065;SDS011;50318;54.760;9.408;2022-12-07T06:39:51;32.40;;;11.13;;
64065;SDS011;50318;54.760;9.408;2022-12-07T06:42:17;77.70;;;23.17;;
64065;SDS011;50318;54.760;9.408;2022-12-07T06:44:42;34.28;;;11.45;;
64065;SDS011;50318;54.760;9.408;2022-12-07T06:47:08;36.00;;;12.43;;
64065;SDS011;50318;54.760;9.408;2022-12-07T06:49:34;21.40;;;7.95;;
64065;SDS011;50318;54.760;9.408;2022-12-07T06:52:00;22.25;;;8.35;;
64065;SDS011;50318;54.760;9.408;2022-12-07T06:54:26;28.98;;;9.98;;
64065;SDS011;50318;54.760;9.408;2022-12-07T06:56:52;21.38;;;7.70;;
64065;SDS011;50318;54.760;9.408;2022-12-07T06:59:18;23.85;;;7.93;;
64065;SDS011;50318;54.760;9.408;2022-12-07T07:01:44;55.22;;;16.00;;
64065;SDS011;50318;54.760;9.408;2022-12-07T07:04:09;51.17;;;16.05;;
64065;SDS011;50318;54.760;9.408;2022-12-07T07:06:35;40.75;;;13.48;;
64065;SDS011;50318;54.760;9.408;2022-12-07T07:09:01;52.58;;;13.70;;
64065;SDS011;50318;54.760;9.408;2022-12-07T07:11:27;48.75;;;12.95;;
64065;SDS011;50318;54.760;9.408;2022-12-07T07:13:52;33.17;;;8.10;;
64065;SDS011;50318;54.760;9.408;2022-12-07T07:16:19;38.65;;;11.20;;
64065;SDS011;50318;54.760;9.408;2022-12-07T07:18:44;31.63;;;7.97;;
64065;SDS011;50318;54.760;9.408;2022-12-07T07:21:10;39.53;;;11.57;;
64065;SDS011;50318;54.760;9.408;2022-12-07T07:23:36;44.22;;;11.32;;
64065;SDS011;50318;54.760;9.408;2022-12-07T07:26:02;44.42;;;10.20;;
64065;SDS011;50318;54.760;9.408;2022-12-07T07:28:28;54.95;;;12.50;;
64065;SDS011;50318;54.760;9.408;2022-12-07T07:30:54;56.63;;;15.77;;
64065;SDS011;50318;54.760;9.408;2022-12-07T07:33:19;43.70;;;11.77;;
64065;SDS011;50318;54.760;9.408;2022-12-07T07:35:45;29.67;;;7.68;;
64065;SDS011;50318;54.760;9.408;2022-12-07T07:38:11;32.33;;;8.55;;
64065;SDS011;50318;54.760;9.408;2022-12-07T07:40:37;27.02;;;7.07;;
64065;SDS011;50318;54.760;9.408;2022-12-07T07:43:02;22.17;;;6.32;;
64065;SDS011;50318;54.760;9.408;2022-12-07T07:45:28;22.25;;;5.65;;
64065;SDS011;50318;54.760;9.408;2022-12-07T07:47:54;34.80;;;8.98;;
64065;SDS011;50318;54.760;9.408;2022-12-07T07:50:21;40.35;;;11.52;;
64065;SDS011;50318;54.760;9.408;2022-12-07T07:52:47;28.02;;;8.20;;
64065;SDS011;50318;54.760;9.408;2022-12-07T07:55:13;20.23;;;5.50;;
64065;SDS011;50318;54.760;9.408;2022-12-07T07:57:41;13.02;;;3.72;;
64065;SDS011;50318;54.760;9.408;2022-12-07T08:00:08;14.00;;;3.65;;
64065;SDS011;50318;54.760;9.408;2022-12-07T08:02:39;12.40;;;3.10;;
64065;SDS011;50318;54.760;9.408;2022-12-07T08:05:05;13.30;;;2.95;;
64065;SDS011;50318;54.760;9.408;2022-12-07T08:07:31;21.10;;;4.88;;
64065;SDS011;50318;54.760;9.408;2022-12-07T08:09:57;14.52;;;4.28;;
64065;SDS011;50318;54.760;9.408;2022-12-07T08:12:23;13.57;;;3.97;;
64065;SDS011;50318;54.760;9.408;2022-12-07T08:14:49;18.30;;;7.70;;
64065;SDS011;50318;54.760;9.408;2022-12-07T08:17:14;77.57;;;40.85;;
64065;SDS011;50318;54.760;9.408;2022-12-07T08:19:40;19.58;;;7.15;;
64065;SDS011;50318;54.760;9.408;2022-12-07T08:22:06;10.60;;;4.10;;
64065;SDS011;50318;54.760;9.408;2022-12-07T08:24:35;9.70;;;3.15;;
64065;SDS011;50318;54.760;9.408;2022-12-07T08:27:02;10.15;;;2.47;;
64065;SDS011;50318;54.760;9.408;2022-12-07T08:29:29;11.55;;;2.85;;
64065;SDS011;50318;54.760;9.408;2022-12-07T08:31:54;9.70;;;2.40;;
64065;SDS011;50318;54.760;9.408;2022-12-07T08:34:20;8.98;;;2.67;;
64065;SDS011;50318;54.760;9.408;2022-12-07T08:36:46;7.47;;;2.28;;
64065;SDS011;50318;54.760;9.408;2022-12-07T08:39:12;10.18;;;3.38;;
64065;SDS011;50318;54.760;9.408;2022-12-07T08:41:38;16.13;;;3.78;;
64065;SDS011;50318;54.760;9.408;2022-12-07T08:44:04;14.65;;;3.22;;
64065;SDS011;50318;54.760;9.408;2022-12-07T08:51:52;10.02;;;3.72;;
64065;SDS011;50318;54.760;9.408;2022-12-07T08:54:18;12.25;;;5.68;;
64065;SDS011;50318;54.760;9.408;2022-12-07T08:56:45;14.05;;;6.78;;
64065;SDS011;50318;54.760;9.408;2022-12-07T08:59:13;16.67;;;8.20;;
64065;SDS011;50318;54.760;9.408;2022-12-07T09:01:41;15.68;;;7.07;;
64065;SDS011;50318;54.760;9.408;2022-12-07T09:04:07;21.10;;;10.57;;
64065;SDS011;50318;54.760;9.408;2022-12-07T09:06:33;17.52;;;9.13;;
64065;SDS011;50318;54.760;9.408;2022-12-07T09:08:59;14.25;;;6.00;;
64065;SDS011;50318;54.760;9.408;2022-12-07T09:11:26;17.33;;;7.38;;
64065;SDS011;50318;54.760;9.408;2022-12-07T09:13:52;10.55;;;4.32;;
64065;SDS011;50318;54.760;9.408;2022-12-07T09:16:18;6.03;;;2.78;;
64065;SDS011;50318;54.760;9.408;2022-12-07T09:18:44;7.43;;;2.67;;
64065;SDS011;50318;54.760;9.408;2022-12-07T09:21:10;8.38;;;2.45;;
64065;SDS011;50318;54.760;9.408;2022-12-07T09:23:36;6.47;;;2.38;;
64065;SDS011;50318;54.760;9.408;2022-12-07T09:26:02;6.85;;;2.13;;
64065;SDS011;50318;54.760;9.408;2022-12-07T09:28:30;7.78;;;2.40;;
64065;SDS011;50318;54.760;9.408;2022-12-07T09:30:56;10.82;;;2.90;;
64065;SDS011;50318;54.760;9.408;2022-12-07T09:33:22;6.38;;;1.70;;
64065;SDS011;50318;54.760;9.408;2022-12-07T09:35:48;5.43;;;2.63;;
64065;SDS011;50318;54.760;9.408;2022-12-07T09:38:16;6.88;;;2.20;;
64065;SDS011;50318;54.760;9.408;2022-12-07T09:40:42;6.95;;;2.00;;
64065;SDS011;50318;54.760;9.408;2022-12-07T09:43:17;9.82;;;3.13;;
64065;SDS011;50318;54.760;9.408;2022-12-07T09:45:45;9.82;;;2.83;;
64065;SDS011;50318;54.760;9.408;2022-12-07T09:48:17;9.35;;;3.50;;
64065;SDS011;50318;54.760;9.408;2022-12-07T09:50:46;7.22;;;2.58;;
64065;SDS011;50318;54.760;9.408;2022-12-07T09:53:36;7.72;;;2.38;;
64065;SDS011;50318;54.760;9.408;2022-12-07T09:56:01;7.82;;;3.53;;
64065;SDS011;50318;54.760;9.408;2022-12-07T09:58:28;8.18;;;2.75;;
64065;SDS011;50318;54.760;9.408;2022-12-07T10:00:56;10.43;;;3.80;;
64065;SDS011;50318;54.760;9.408;2022-12-07T10:03:26;9.05;;;3.60;;
64065;SDS011;50318;54.760;9.408;2022-12-07T10:05:53;12.43;;;4.75;;
64065;SDS011;50318;54.760;9.408;2022-12-07T10:08:20;10.25;;;3.03;;
64065;SDS011;50318;54.760;9.408;2022-12-07T10:10:48;6.25;;;2.30;;
64065;SDS011;50318;54.760;9.408;2022-12-07T10:13:20;7.05;;;2.13;;
64065;SDS011;50318;54.760;9.408;2022-12-07T10:16:00;6.38;;;2.30;;
64065;SDS011;50318;54.760;9.408;2022-12-07T10:21:00;6.32;;;1.50;;
64065;SDS011;50318;54.760;9.408;2022-12-07T10:23:39;3.83;;;1.20;;
64065;SDS011;50318;54.760;9.408;2022-12-07T10:26:20;5.82;;;1.83;;
64065;SDS011;50318;54.760;9.408;2022-12-07T10:28:53;5.65;;;1.80;;
64065;SDS011;50318;54.760;9.408;2022-12-07T10:31:20;6.68;;;1.45;;
64065;SDS011;50318;54.760;9.408;2022-12-07T10:38:59;5.35;;;1.65;;
64065;SDS011;50318;54.760;9.408;2022-12-07T10:41:28;13.77;;;4.80;;
64065;SDS011;50318;54.760;9.408;2022-12-07T10:43:55;22.35;;;6.82;;
64065;SDS011;50318;54.760;9.408;2022-12-07T10:54:10;15.75;;;4.07;;
64065;SDS011;50318;54.760;9.408;2022-12-07T11:12:35;24.37;;;7.03;;
64065;SDS011;50318;54.760;9.408;2022-12-07T11:15:16;13.05;;;3.67;;
64065;SDS011;50318;54.760;9.408;2022-12-07T11:26:07;24.48;;;6.47;;
64065;SDS011;50318;54.760;9.408;2022-12-07T11:36:41;5.95;;;1.67;;
64065;SDS011;50318;54.760;9.408;2022-12-07T11:39:15;23.92;;;11.15;;
64065;SDS011;50318;54.760;9.408;2022-12-07T11:41:47;11.20;;;4.10;;
64065;SDS011;50318;54.760;9.408;2022-12-07T11:44:50;7.18;;;3.20;;
64065;SDS011;50318;54.760;9.408;2022-12-07T11:47:35;6.65;;;2.63;;
64065;SDS011;50318;54.760;9.408;2022-12-07T11:55:43;4.90;;;2.10;;
64065;SDS011;50318;54.760;9.408;2022-12-07T12:03:43;3.28;;;1.10;;
64065;SDS011;50318;54.760;9.408;2022-12-07T12:06:11;4.40;;;1.00;;
64065;SDS011;50318;54.760;9.408;2022-12-07T12:08:39;3.80;;;1.05;;
64065;SDS011;50318;54.760;9.408;2022-12-07T12:19:19;4.20;;;1.08;;
64065;SDS011;50318;54.760;9.408;2022-12-07T12:22:15;3.70;;;1.23;;
64065;SDS011;50318;54.760;9.408;2022-12-07T12:24:45;3.92;;;1.08;;
64065;SDS011;50318;54.760;9.408;2022-12-07T12:27:22;3.38;;;1.10;;
64065;SDS011;50318;54.760;9.408;2022-12-07T12:29:53;2.78;;;1.10;;
64065;SDS011;50318;54.760;9.408;2022-12-07T12:32:22;3.20;;;1.15;;
64065;SDS011;50318;54.760;9.408;2022-12-07T12:35:59;4.15;;;2.65;;
64065;SDS011;50318;54.760;9.408;2022-12-07T12:37:52;3.33;;;1.35;;
64065;SDS011;50318;54.760;9.408;2022-12-07T12:42:53;2.50;;;1.10;;
64065;SDS011;50318;54.760;9.408;2022-12-07T12:47:57;4.22;;;1.17;;
64065;SDS011;50318;54.760;9.408;2022-12-07T12:50:33;3.72;;;1.10;;
64065;SDS011;50318;54.760;9.408;2022-12-07T12:53:12;3.15;;;1.08;;
64065;SDS011;50318;54.760;9.408;2022-12-07T13:01:43;3.50;;;1.00;;
64065;SDS011;50318;54.760;9.408;2022-12-07T13:04:14;3.85;;;1.20;;
64065;SDS011;50318;54.760;9.408;2022-12-07T13:06:47;2.47;;;1.38;;
64065;SDS011;50318;54.760;9.408;2022-12-07T13:09:29;5.15;;;1.50;;
64065;SDS011;50318;54.760;9.408;2022-12-07T13:12:02;2.20;;;1.00;;
64065;SDS011;50318;54.760;9.408;2022-12-07T13:27:55;3.97;;;1.35;;
64065;SDS011;50318;54.760;9.408;2022-12-07T13:32:56;3.42;;;1.05;;
64065;SDS011;50318;54.760;9.408;2022-12-07T13:35:28;2.40;;;1.02;;
64065;SDS011;50318;54.760;9.408;2022-12-07T13:37:54;5.10;;;1.50;;
64065;SDS011;50318;54.760;9.408;2022-12-07T13:40:21;2.97;;;1.30;;
64065;SDS011;50318;54.760;9.408;2022-12-07T13:42:47;2.03;;;0.95;;
64065;SDS011;50318;54.760;9.408;2022-12-07T13:45:30;3.17;;;1.23;;
64065;SDS011;50318;54.760;9.408;2022-12-07T13:48:23;2.42;;;1.08;;
64065;SDS011;50318;54.760;9.408;2022-12-07T13:50:56;4.72;;;2.13;;
64065;SDS011;50318;54.760;9.408;2022-12-07T13:53:23;2.85;;;1.40;;
64065;SDS011;50318;54.760;9.408;2022-12-07T13:55:50;3.42;;;1.83;;
64065;SDS011;50318;54.760;9.408;2022-12-07T13:58:16;8.63;;;4.10;;
64065;SDS011;50318;54.760;9.408;2022-12-07T14:00:42;5.28;;;2.60;;
64065;SDS011;50318;54.760;9.408;2022-12-07T14:05:38;8.55;;;2.72;;
64065;SDS011;50318;54.760;9.408;2022-12-07T14:10:40;10.40;;;5.18;;
64065;SDS011;50318;54.760;9.408;2022-12-07T14:15:54;13.60;;;5.53;;
64065;SDS011;50318;54.760;9.408;2022-12-07T14:18:29;15.98;;;6.85;;
64065;SDS011;50318;54.760;9.408;2022-12-07T14:21:06;30.23;;;11.68;;
64065;SDS011;50318;54.760;9.408;2022-12-07T14:23:45;26.52;;;9.52;;
64065;SDS011;50318;54.760;9.408;2022-12-07T14:26:32;27.35;;;8.57;;
64065;SDS011;50318;54.760;9.408;2022-12-07T14:31:53;13.05;;;3.92;;
64065;SDS011;50318;54.760;9.408;2022-12-07T14:34:19;27.65;;;9.00;;
64065;SDS011;50318;54.760;9.408;2022-12-07T14:36:46;20.58;;;6.75;;
64065;SDS011;50318;54.760;9.408;2022-12-07T14:39:12;39.80;;;12.57;;
64065;SDS011;50318;54.760;9.408;2022-12-07T14:41:38;19.40;;;6.45;;
64065;SDS011;50318;54.760;9.408;2022-12-07T14:44:16;46.17;;;14.38;;
64065;SDS011;50318;54.760;9.408;2022-12-07T14:46:42;31.52;;;10.38;;
64065;SDS011;50318;54.760;9.408;2022-12-07T14:49:08;41.75;;;13.18;;
64065;SDS011;50318;54.760;9.408;2022-12-07T14:51:35;32.95;;;9.73;;
64065;SDS011;50318;54.760;9.408;2022-12-07T14:54:03;48.47;;;14.00;;
64065;SDS011;50318;54.760;9.408;2022-12-07T14:56:32;31.67;;;10.88;;
64065;SDS011;50318;54.760;9.408;2022-12-07T14:58:57;9.65;;;3.38;;
64065;SDS011;50318;54.760;9.408;2022-12-07T15:01:26;8.65;;;2.80;;
64065;SDS011;50318;54.760;9.408;2022-12-07T15:03:52;8.77;;;2.70;;
64065;SDS011;50318;54.760;9.408;2022-12-07T15:06:17;16.05;;;5.45;;
64065;SDS011;50318;54.760;9.408;2022-12-07T15:08:44;12.57;;;4.38;;
64065;SDS011;50318;54.760;9.408;2022-12-07T15:11:13;15.38;;;4.32;;
64065;SDS011;50318;54.760;9.408;2022-12-07T15:13:40;26.88;;;8.10;;
64065;SDS011;50318;54.760;9.408;2022-12-07T15:16:24;23.67;;;7.45;;
64065;SDS011;50318;54.760;9.408;2022-12-07T15:18:50;26.15;;;8.55;;
64065;SDS011;50318;54.760;9.408;2022-12-07T15:21:16;14.93;;;5.90;;
64065;SDS011;50318;54.760;9.408;2022-12-07T15:23:42;7.78;;;3.10;;
64065;SDS011;50318;54.760;9.408;2022-12-07T15:26:09;8.48;;;2.80;;
64065;SDS011;50318;54.760;9.408;2022-12-07T15:28:35;4.97;;;2.25;;
64065;SDS011;50318;54.760;9.408;2022-12-07T15:31:01;3.78;;;1.92;;
64065;SDS011;50318;54.760;9.408;2022-12-07T15:33:27;3.55;;;2.30;;
64065;SDS011;50318;54.760;9.408;2022-12-07T15:35:53;4.72;;;2.92;;
64065;SDS011;50318;54.760;9.408;2022-12-07T15:38:18;5.97;;;3.47;;
64065;SDS011;50318;54.760;9.408;2022-12-07T15:40:47;14.73;;;6.22;;
64065;SDS011;50318;54.760;9.408;2022-12-07T15:43:13;25.00;;;7.78;;
64065;SDS011;50318;54.760;9.408;2022-12-07T15:48:24;31.42;;;10.20;;
64065;SDS011;50318;54.760;9.408;2022-12-07T15:50:50;19.83;;;6.60;;
64065;SDS011;50318;54.760;9.408;2022-12-07T15:53:16;13.27;;;5.00;;
64065;SDS011;50318;54.760;9.408;2022-12-07T15:55:42;9.60;;;4.03;;
64065;SDS011;50318;54.760;9.408;2022-12-07T15:58:10;7.72;;;4.28;;
64065;SDS011;50318;54.760;9.408;2022-12-07T16:04:16;8.23;;;4.82;;
64065;SDS011;50318;54.760;9.408;2022-12-07T16:06:41;7.78;;;4.82;;
64065;SDS011;50318;54.760;9.408;2022-12-07T16:09:07;9.82;;;4.85;;
64065;SDS011;50318;54.760;9.408;2022-12-07T16:11:34;9.93;;;5.40;;
64065;SDS011;50318;54.760;9.408;2022-12-07T16:13:59;10.10;;;6.20;;
64065;SDS011;50318;54.760;9.408;2022-12-07T16:16:25;13.88;;;6.93;;
64065;SDS011;50318;54.760;9.408;2022-12-07T16:18:52;14.73;;;8.20;;
64065;SDS011;50318;54.760;9.408;2022-12-07T16:21:19;13.45;;;7.97;;
64065;SDS011;50318;54.760;9.408;2022-12-07T16:23:45;11.73;;;6.60;;
64065;SDS011;50318;54.760;9.408;2022-12-07T16:26:12;10.73;;;5.88;;
64065;SDS011;50318;54.760;9.408;2022-12-07T16:28:40;10.50;;;5.50;;
64065;SDS011;50318;54.760;9.408;2022-12-07T16:31:09;9.68;;;5.80;;
64065;SDS011;50318;54.760;9.408;2022-12-07T16:33:37;9.27;;;6.13;;
64065;SDS011;50318;54.760;9.408;2022-12-07T16:36:03;11.32;;;6.50;;
64065;SDS011;50318;54.760;9.408;2022-12-07T16:38:30;15.23;;;7.60;;
64065;SDS011;50318;54.760;9.408;2022-12-07T16:40:56;17.17;;;7.70;;
64065;SDS011;50318;54.760;9.408;2022-12-07T16:43:22;16.88;;;8.48;;
64065;SDS011;50318;54.760;9.408;2022-12-07T16:45:48;15.52;;;7.97;;
64065;SDS011;50318;54.760;9.408;2022-12-07T16:48:14;22.90;;;12.52;;
64065;SDS011;50318;54.760;9.408;2022-12-07T16:50:41;15.00;;;7.95;;
64065;SDS011;50318;54.760;9.408;2022-12-07T16:53:09;10.18;;;6.72;;
64065;SDS011;50318;54.760;9.408;2022-12-07T16:55:36;12.25;;;6.60;;
64065;SDS011;50318;54.760;9.408;2022-12-07T16:58:02;12.60;;;7.50;;
64065;SDS011;50318;54.760;9.408;2022-12-07T17:00:28;9.00;;;6.45;;
64065;SDS011;50318;54.760;9.408;2022-12-07T17:02:54;11.30;;;6.57;;
64065;SDS011;50318;54.760;9.408;2022-12-07T17:05:20;8.15;;;5.50;;
64065;SDS011;50318;54.760;9.408;2022-12-07T17:07:46;9.75;;;6.28;;
64065;SDS011;50318;54.760;9.408;2022-12-07T17:10:12;8.75;;;5.28;;
64065;SDS011;50318;54.760;9.408;2022-12-07T17:12:37;6.53;;;4.35;;
64065;SDS011;50318;54.760;9.408;2022-12-07T17:15:03;7.53;;;4.65;;
64065;SDS011;50318;54.760;9.408;2022-12-07T17:17:45;9.93;;;6.85;;